Time;durP1;ratioP1;P1;durP2;ratioP2;P2;SDS_P1;SDS_P2;PMS_P1;PMS_P2;Temp;Humidity;BMP_temperature;BMP_pressure;BME280_temperature;BME280_humidity;BME280_pressure;Samples;Min_cycle;Max_cycle;Signal;HPM_P1;HPM_P2
2022/06/16 00:01:22;;;;;;;6.45;3.20;;;;;;;19.72;49.00;100502.88;5054356;28;20053;-76
2022/06/16 00:03:49;;;;;;;5.18;3.03;;;;;;;19.70;49.27;100502.41;5059762;28;20048;-76
2022/06/16 00:06:17;;;;;;;5.88;3.28;;;;;;;19.67;49.37;100500.28;5072284;28;20053;-76
2022/06/16 00:08:45;;;;;;;5.85;3.28;;;;;;;19.64;49.70;100509.53;5066886;28;20056;-76
2022/06/16 00:11:19;;;;;;;4.07;2.90;;;;;;;19.52;50.23;100509.72;5057502;28;20788;-76
2022/06/16 00:13:48;;;;;;;4.78;3.33;;;;;;;19.49;50.32;100511.28;5071393;28;20056;-75
2022/06/16 00:16:17;;;;;;;4.57;2.78;;;;;;;19.44;50.74;100509.59;5071494;28;20055;-76
2022/06/16 00:18:45;;;;;;;6.40;3.22;;;;;;;19.40;50.92;100505.88;5074803;28;20053;-76
2022/06/16 00:21:13;;;;;;;4.43;3.15;;;;;;;19.34;51.05;100489.56;5068871;28;20048;-75
2022/06/16 00:23:44;;;;;;;5.00;3.30;;;;;;;19.31;51.39;100474.22;5055315;28;20053;-76
2022/06/16 00:26:13;;;;;;;5.43;3.33;;;;;;;19.27;50.99;100467.66;5069323;28;20052;-75
2022/06/16 00:28:41;;;;;;;7.28;3.40;;;;;;;19.19;50.97;100477.19;5074074;28;20067;-76
2022/06/16 00:31:12;;;;;;;5.50;3.10;;;;;;;19.14;51.02;100494.44;5068488;28;20049;-75
2022/06/16 00:33:41;;;;;;;5.32;3.50;;;;;;;19.09;50.98;100504.03;5054556;28;20064;-76
2022/06/16 00:36:10;;;;;;;5.70;3.08;;;;;;;19.06;50.95;100504.75;5056925;28;20041;-76
2022/06/16 00:38:38;;;;;;;4.82;3.30;;;;;;;18.96;51.03;100516.66;5070789;28;20052;-77
2022/06/16 00:41:07;;;;;;;4.97;3.15;;;;;;;18.92;51.07;100527.03;5056476;28;20052;-76
2022/06/16 00:43:35;;;;;;;4.93;3.15;;;;;;;18.82;51.25;100517.16;5070583;28;20060;-76
2022/06/16 00:46:06;;;;;;;5.68;3.10;;;;;;;18.74;51.28;100504.06;5072838;28;20053;-75
2022/06/16 00:48:38;;;;;;;6.32;3.10;;;;;;;18.67;51.31;100511.19;5060497;28;20052;-75
2022/06/16 00:51:10;;;;;;;5.45;3.33;;;;;;;18.62;51.15;100507.81;5053583;28;20056;-75
2022/06/16 00:53:39;;;;;;;6.00;3.70;;;;;;;18.56;51.26;100498.00;5053355;28;20049;-76
2022/06/16 00:56:10;;;;;;;3.95;2.90;;;;;;;18.51;51.22;100492.66;5053835;28;20501;-76
2022/06/16 00:58:41;;;;;;;6.47;3.10;;;;;;;18.46;51.04;100511.50;5074338;28;20052;-76
2022/06/16 01:01:09;;;;;;;5.40;3.08;;;;;;;18.42;51.12;100518.25;5057598;28;20041;-81
2022/06/16 01:06:25;;;;;;;5.68;3.20;;;;;;;18.39;51.22;100518.97;5058272;28;20408;-81
2022/06/16 01:09:00;;;;;;;4.57;3.13;;;;;;;18.36;51.20;100508.44;5053160;28;20080;-82
2022/06/16 01:14:36;;;;;;;4.88;3.13;;;;;;;18.34;52.00;100519.25;5069528;28;20075;-82
2022/06/16 01:17:11;;;;;;;5.32;3.38;;;;;;;18.32;51.46;100535.72;5072740;28;20049;-82
2022/06/16 01:19:59;;;;;;;5.60;3.58;;;;;;;18.31;51.33;100531.25;5072874;28;20428;-82
2022/06/16 01:22:44;;;;;;;5.18;3.63;;;;;;;18.32;51.00;100530.91;5054225;28;20405;-82
2022/06/16 01:25:20;;;;;;;6.95;3.60;;;;;;;18.31;51.11;100528.44;5060785;28;20483;-82
2022/06/16 01:28:17;;;;;;;5.38;3.50;;;;;;;18.27;51.18;100519.91;5053703;28;20049;-82
2022/06/16 01:30:54;;;;;;;4.63;3.40;;;;;;;18.24;51.03;100504.53;5063881;28;20052;-83
2022/06/16 01:33:26;;;;;;;5.28;3.70;;;;;;;18.20;50.90;100506.44;5070008;28;20060;-81
2022/06/16 01:36:06;;;;;;;7.40;3.88;;;;;;;18.12;51.51;100501.84;5072875;28;20048;-82
2022/06/16 01:38:39;;;;;;;7.47;3.58;;;;;;;18.00;51.59;100499.91;5073542;28;20052;-82
2022/06/16 01:41:16;;;;;;;4.68;3.42;;;;;;;17.97;52.08;100506.25;5061300;28;20486;-80
2022/06/16 01:43:48;;;;;;;5.93;3.60;;;;;;;17.89;51.99;100518.56;5071119;28;20064;-82
2022/06/16 01:46:22;;;;;;;4.85;3.25;;;;;;;17.83;52.07;100514.38;5069471;28;20083;-82
2022/06/16 01:48:54;;;;;;;5.60;3.35;;;;;;;17.75;52.02;100510.53;5072531;28;20412;-82
2022/06/16 01:51:27;;;;;;;5.97;3.10;;;;;;;17.70;52.33;100516.44;5072903;28;20059;-82
2022/06/16 01:53:59;;;;;;;6.93;3.72;;;;;;;17.67;52.49;100524.78;5052583;28;20053;-82
2022/06/16 01:56:31;;;;;;;5.18;3.30;;;;;;;17.61;52.68;100522.22;5052911;28;20486;-82
2022/06/16 01:59:02;;;;;;;4.43;3.15;;;;;;;17.59;52.60;100518.94;5067708;28;20059;-82
2022/06/16 02:01:42;;;;;;;4.68;3.17;;;;;;;17.60;52.49;100525.41;5061210;28;20520;-82
2022/06/16 02:04:14;;;;;;;5.53;3.15;;;;;;;17.59;53.10;100524.56;5058706;28;20056;-82
2022/06/16 02:06:47;;;;;;;4.22;3.30;;;;;;;17.60;52.86;100525.41;5054202;28;20056;-82
2022/06/16 02:09:20;;;;;;;5.05;3.30;;;;;;;17.62;52.97;100528.69;5060506;28;20045;-82
2022/06/16 02:11:48;;;;;;;4.13;2.95;;;;;;;17.62;53.39;100531.50;5063276;28;20041;-82
2022/06/16 02:14:21;;;;;;;4.82;3.42;;;;;;;17.58;53.05;100531.41;5055939;28;20504;-82
2022/06/16 02:16:52;;;;;;;6.65;3.47;;;;;;;17.59;52.66;100530.19;5055303;28;20045;-82
2022/06/16 02:19:22;;;;;;;4.05;3.45;;;;;;;17.60;52.56;100526.22;5054668;28;20049;-81
2022/06/16 02:21:52;;;;;;;8.50;3.50;;;;;;;17.61;52.89;100532.66;5053149;28;20056;-82
2022/06/16 02:24:21;;;;;;;4.97;3.40;;;;;;;17.63;53.33;100530.31;5061855;28;20416;-83
2022/06/16 02:26:49;;;;;;;;;;;;;;;17.59;53.56;100535.03;5085302;28;20045;-82
2022/06/16 02:29:26;;;;;;;5.20;3.40;;;;;;;17.59;53.37;100540.66;5073858;28;19927;-82
2022/06/16 02:32:08;;;;;;;5.40;3.25;;;;;;;17.57;52.98;100548.66;5068001;28;20053;-82
2022/06/16 02:34:48;;;;;;;6.18;3.60;;;;;;;17.58;52.80;100550.31;5052156;28;20049;-82
2022/06/16 02:37:43;;;;;;;4.95;3.03;;;;;;;17.56;53.53;100552.66;5053668;28;20053;-82
2022/06/16 02:40:28;;;;;;;4.13;3.33;;;;;;;17.53;53.27;100562.63;5052363;28;20068;-80
2022/06/16 02:43:08;;;;;;;6.70;3.30;;;;;;;17.54;53.56;100555.00;5052818;28;20041;-82
2022/06/16 02:45:43;;;;;;;4.40;3.22;;;;;;;17.54;53.84;100550.19;5052654;28;20057;-82
2022/06/16 02:48:19;;;;;;;4.45;3.67;;;;;;;17.56;54.48;100547.84;5052316;28;20063;-82
2022/06/16 02:50:53;;;;;;;5.07;3.63;;;;;;;17.57;54.09;100555.09;5052492;28;20140;-81
2022/06/16 02:53:35;;;;;;;6.35;3.22;;;;;;;17.56;54.08;100547.03;5066469;28;20049;-82
2022/06/16 02:56:09;;;;;;;4.88;3.33;;;;;;;17.52;54.12;100548.91;5072716;28;20052;-82
2022/06/16 02:58:38;;;;;;;5.38;3.25;;;;;;;17.52;53.94;100557.38;5056817;28;20060;-82
2022/06/16 03:01:07;;;;;;;7.78;4.10;;;;;;;17.50;54.06;100554.91;5052134;28;20060;-82
2022/06/16 03:03:39;;;;;;;10.07;3.65;;;;;;;17.46;54.46;100553.97;5052663;28;20447;-82
2022/06/16 03:06:07;;;;;;;5.88;3.67;;;;;;;17.44;55.09;100556.34;5055955;28;20060;-82
2022/06/16 03:08:40;;;;;;;6.63;4.30;;;;;;;17.33;55.85;100539.16;5052642;28;20056;-82
2022/06/16 03:11:08;;;;;;;4.85;3.63;;;;;;;17.26;56.19;100538.97;5056832;28;20053;-82
2022/06/16 03:13:39;;;;;;;5.27;3.63;;;;;;;17.22;55.72;100543.66;5060924;28;20052;-81
2022/06/16 03:16:07;;;;;;;5.25;3.88;;;;;;;17.11;56.30;100545.34;5069763;28;20835;-82
2022/06/16 03:18:37;;;;;;;4.93;3.92;;;;;;;17.04;56.57;100546.75;5076221;28;20063;-82
2022/06/16 03:21:04;;;;;;;8.77;4.10;;;;;;;16.97;57.06;100542.94;5068427;28;20057;-82
2022/06/16 03:23:32;;;;;;;5.05;3.45;;;;;;;16.90;57.19;100546.31;5056405;28;20052;-83
2022/06/16 03:26:00;;;;;;;5.80;3.58;;;;;;;16.88;57.76;100545.03;5065170;28;20519;-82
2022/06/16 03:28:28;;;;;;;4.18;3.40;;;;;;;16.82;57.29;100555.75;5055505;28;20052;-83
2022/06/16 03:30:55;;;;;;;5.93;3.95;;;;;;;16.78;56.92;100557.59;5058400;28;20412;-83
2022/06/16 03:33:25;;;;;;;5.78;4.00;;;;;;;16.75;57.66;100553.47;5075630;28;20385;-83
2022/06/16 03:35:56;;;;;;;4.13;3.70;;;;;;;16.75;57.03;100552.66;5075376;28;20163;-83
2022/06/16 03:38:26;;;;;;;5.20;3.78;;;;;;;16.64;57.47;100558.78;5075589;28;20049;-83
2022/06/16 03:40:53;;;;;;;4.72;3.75;;;;;;;16.59;57.55;100556.22;5075325;28;20068;-83
2022/06/16 03:43:20;;;;;;;4.85;3.85;;;;;;;16.54;57.66;100556.44;5077619;28;20059;-82
2022/06/16 03:45:48;;;;;;;4.72;3.70;;;;;;;16.49;57.75;100553.88;5064247;28;20049;-83
2022/06/16 03:48:16;;;;;;;4.60;3.63;;;;;;;16.43;57.78;100564.53;5057915;28;20052;-82
2022/06/16 03:50:43;;;;;;;4.93;3.90;;;;;;;16.37;57.79;100567.94;5055570;28;20060;-82
2022/06/16 03:53:13;;;;;;;4.97;3.70;;;;;;;16.30;58.10;100578.94;5055153;28;20462;-82
2022/06/16 03:55:40;;;;;;;;;;;;;;;16.22;58.66;100591.94;5073017;28;20493;-83
2022/06/16 03:58:08;;;;;;;4.53;3.67;;;;;;;16.17;58.99;100600.59;5071738;28;20272;-82
2022/06/16 04:00:35;;;;;;;6.20;3.75;;;;;;;16.16;59.60;100604.56;5056840;28;20421;-82
2022/06/16 04:05:50;;;;;;;5.35;3.70;;;;;;;16.17;59.54;100607.03;5056903;28;20076;-82
2022/06/16 04:08:19;;;;;;;4.53;3.60;;;;;;;16.19;59.68;100620.72;5055194;28;20496;-82
2022/06/16 04:10:47;;;;;;;;;;;;;;;16.16;59.57;100613.81;5059790;28;20049;-82
2022/06/16 04:13:17;;;;;;;6.78;3.85;;;;;;;16.18;60.09;100619.91;5057357;28;19921;-82
2022/06/16 04:15:44;;;;;;;5.75;3.25;;;;;;;16.19;60.11;100624.38;5054823;28;20052;-82
2022/06/16 04:18:12;;;;;;;6.32;3.88;;;;;;;16.23;60.06;100622.50;5057468;28;20049;-81
2022/06/16 04:20:39;;;;;;;5.03;3.38;;;;;;;16.23;60.57;100616.03;5071652;28;20055;-82
2022/06/16 04:23:11;;;;;;;7.57;5.57;;;;;;;16.26;60.20;100626.59;5074789;28;20044;-82
2022/06/16 04:25:39;;;;;;;6.85;4.80;;;;;;;16.27;60.00;100633.84;5067851;28;20048;-82
2022/06/16 04:28:08;;;;;;;5.35;4.00;;;;;;;16.28;59.96;100634.69;5058575;28;20079;-82
2022/06/16 04:30:36;;;;;;;6.28;4.13;;;;;;;16.29;60.07;100631.50;5054902;28;20057;-82
2022/06/16 04:33:04;;;;;;;6.70;4.07;;;;;;;16.29;60.07;100633.50;5055309;28;20053;-82
2022/06/16 04:35:31;;;;;;;5.32;3.83;;;;;;;16.32;59.93;100624.41;5054282;28;20048;-82
2022/06/16 04:37:58;;;;;;;5.43;3.60;;;;;;;16.33;59.30;100621.22;5058841;28;20059;-79
2022/06/16 04:40:26;;;;;;;6.57;3.70;;;;;;;16.35;59.39;100640.56;5057979;28;20060;-81
2022/06/16 04:42:54;;;;;;;5.93;3.78;;;;;;;16.41;58.94;100636.34;5054885;28;20060;-81
2022/06/16 04:45:22;;;;;;;6.75;4.05;;;;;;;16.44;58.76;100632.81;5058527;28;20045;-82
2022/06/16 04:47:49;;;;;;;5.70;3.70;;;;;;;16.43;58.92;100642.44;5079728;28;20481;-82
2022/06/16 04:50:18;;;;;;;6.75;3.83;;;;;;;16.44;58.76;100638.44;5061520;28;20049;-82
2022/06/16 04:52:46;;;;;;;5.20;3.75;;;;;;;16.47;58.49;100645.38;5054021;28;20056;-80
2022/06/16 04:55:15;;;;;;;6.97;3.80;;;;;;;16.47;59.01;100642.56;5054801;28;20053;-83
2022/06/16 04:57:43;;;;;;;6.65;4.13;;;;;;;16.49;57.43;100649.47;5054019;28;20044;-82
2022/06/16 05:00:16;;;;;;;4.63;3.85;;;;;;;16.55;56.17;100650.88;5053087;28;20056;-83
2022/06/16 05:02:44;;;;;;;7.43;3.78;;;;;;;16.63;55.05;100643.47;5068000;28;20045;-83
2022/06/16 05:05:11;;;;;;;7.22;4.07;;;;;;;16.64;54.38;100636.72;5072347;28;20481;-82
2022/06/16 05:07:38;;;;;;;7.18;3.50;;;;;;;16.67;54.29;100649.25;5063773;28;20071;-83
2022/06/16 05:10:07;;;;;;;4.85;3.97;;;;;;;16.73;54.24;100640.22;5089565;28;20484;-82
2022/06/16 05:12:34;;;;;;;5.37;3.80;;;;;;;16.78;54.12;100642.00;5089362;28;20496;-83
2022/06/16 05:15:02;;;;;;;6.55;4.03;;;;;;;16.87;53.25;100637.06;5073385;28;20056;-82
2022/06/16 05:17:30;;;;;;;4.60;3.67;;;;;;;16.91;53.11;100646.44;5073772;28;20511;-82
2022/06/16 05:19:58;;;;;;;4.78;3.83;;;;;;;16.97;53.17;100649.84;5060229;28;20057;-82
2022/06/16 05:22:25;;;;;;;4.65;3.33;;;;;;;17.01;53.53;100645.97;5053959;28;20057;-82
2022/06/16 05:24:52;;;;;;;5.10;3.92;;;;;;;17.14;54.34;100660.84;5066844;28;20040;-82
2022/06/16 05:27:20;;;;;;;4.85;3.58;;;;;;;17.20;53.63;100667.88;5093854;28;20059;-82
2022/06/16 05:29:47;;;;;;;5.18;3.47;;;;;;;17.27;53.61;100664.44;5093747;28;20048;-82
2022/06/16 05:32:15;;;;;;;6.55;3.95;;;;;;;17.36;53.58;100661.50;5093435;28;20059;-82
2022/06/16 05:34:44;;;;;;;4.90;3.60;;;;;;;17.45;52.68;100670.63;5093514;28;20342;-83
2022/06/16 05:37:14;;;;;;;5.63;4.40;;;;;;;17.51;52.22;100682.44;5076759;28;20052;-82
2022/06/16 05:39:41;;;;;;;5.55;3.92;;;;;;;17.59;52.09;100692.75;5073502;28;20060;-82
2022/06/16 05:42:08;;;;;;;5.10;3.70;;;;;;;17.65;51.71;100680.06;5073125;28;20052;-82
2022/06/16 05:44:37;;;;;;;4.82;3.72;;;;;;;17.66;51.60;100684.53;5073369;28;20056;-82
2022/06/16 05:47:06;;;;;;;6.70;4.00;;;;;;;17.68;51.45;100690.63;5072917;28;20059;-82
2022/06/16 05:49:38;;;;;;;4.97;3.70;;;;;;;17.74;51.38;100686.34;5073371;28;20048;-82
2022/06/16 05:52:10;;;;;;;6.03;3.72;;;;;;;17.77;51.24;100696.94;5072878;28;20051;-82
2022/06/16 05:54:37;;;;;;;6.28;3.28;;;;;;;17.88;51.10;100700.09;5059689;28;20055;-82
2022/06/16 05:57:07;;;;;;;5.93;3.72;;;;;;;17.91;51.00;100693.75;5072949;28;20420;-82
2022/06/16 05:59:34;;;;;;;;;;;;;;;17.88;50.63;100696.44;5074057;28;20053;-82
2022/06/16 06:02:01;;;;;;;5.22;3.78;;;;;;;17.92;50.56;100697.38;5073349;28;19920;-82
2022/06/16 06:04:30;;;;;;;6.25;4.20;;;;;;;17.97;50.25;100708.38;5073161;28;20056;-82
2022/06/16 06:06:58;;;;;;;6.40;3.97;;;;;;;17.99;50.30;100706.84;5062686;28;20050;-82
2022/06/16 06:17:45;;;;;;;5.93;3.97;;;;;;;18.20;49.68;100700.16;5068130;28;20060;-82
2022/06/16 06:20:13;;;;;;;5.32;3.60;;;;;;;18.16;49.67;100700.06;5057053;28;20159;-80
2022/06/16 06:22:40;;;;;;;4.90;3.53;;;;;;;18.19;49.81;100699.34;5053271;28;20056;-82
2022/06/16 06:25:09;;;;;;;5.60;3.42;;;;;;;18.23;49.85;100705.91;5053894;28;20128;-82
2022/06/16 06:27:40;;;;;;;4.57;3.88;;;;;;;18.30;49.72;100713.75;5061124;28;20060;-82
2022/06/16 06:30:10;;;;;;;5.15;3.75;;;;;;;18.29;49.52;100709.28;5064962;28;20049;-81
2022/06/16 06:32:37;;;;;;;7.15;3.95;;;;;;;18.34;49.88;100711.03;5060947;28;20048;-81
2022/06/16 06:35:05;;;;;;;5.93;3.70;;;;;;;18.37;49.20;100713.94;5056085;28;20056;-82
2022/06/16 06:37:33;;;;;;;4.85;3.58;;;;;;;18.43;48.43;100734.22;5066826;28;20408;-81
2022/06/16 06:40:01;;;;;;;6.07;3.65;;;;;;;18.48;48.44;100731.16;5072618;28;20060;-82
2022/06/16 06:42:29;;;;;;;6.00;3.55;;;;;;;18.54;48.92;100738.16;5070822;28;20048;-80
2022/06/16 06:44:57;;;;;;;5.67;3.90;;;;;;;18.50;49.17;100744.88;5058435;28;20516;-83
2022/06/16 06:47:26;;;;;;;6.85;3.25;;;;;;;18.59;48.91;100748.38;5063566;28;21176;-84
2022/06/16 06:49:54;;;;;;;5.18;3.20;;;;;;;18.63;48.93;100746.47;5064695;28;20049;-81
2022/06/16 06:52:25;;;;;;;4.82;2.92;;;;;;;18.73;48.88;100764.84;5067741;28;20052;-80
2022/06/16 06:54:52;;;;;;;7.57;3.40;;;;;;;18.82;48.66;100759.88;5066705;28;20051;-81
2022/06/16 06:57:26;;;;;;;4.80;3.40;;;;;;;18.90;47.85;100750.41;5066041;28;20056;-80
2022/06/16 06:59:56;;;;;;;4.97;2.95;;;;;;;18.91;48.19;100757.69;5068061;28;20052;-81
2022/06/16 07:02:24;;;;;;;5.30;2.90;;;;;;;18.98;47.31;100754.22;5066503;28;20048;-80
2022/06/16 07:04:52;;;;;;;5.00;2.97;;;;;;;19.08;47.58;100761.31;5067166;28;20055;-80
2022/06/16 07:07:22;;;;;;;4.72;3.30;;;;;;;19.16;46.91;100774.44;5068969;28;20048;-84
2022/06/16 07:09:50;;;;;;;3.58;2.75;;;;;;;19.17;46.98;100774.09;5072088;28;20053;-83
2022/06/16 07:12:19;;;;;;;4.22;2.80;;;;;;;19.29;46.60;100766.69;5075699;28;20481;-83
2022/06/16 07:14:51;;;;;;;6.88;3.10;;;;;;;19.31;47.36;100758.66;5075533;28;20059;-83
2022/06/16 07:17:23;;;;;;;4.60;2.85;;;;;;;19.37;47.19;100760.81;5064924;28;20053;-82
2022/06/16 07:19:57;;;;;;;4.38;2.72;;;;;;;19.45;47.46;100759.00;5071412;28;20051;-88
2022/06/16 07:22:24;;;;;;;5.28;3.13;;;;;;;19.54;47.58;100756.78;5070858;28;20049;-81
2022/06/16 07:24:51;;;;;;;5.10;3.00;;;;;;;19.63;46.85;100748.09;5085559;28;20045;-81
2022/06/16 07:27:20;;;;;;;4.07;2.70;;;;;;;19.66;46.96;100747.38;5074703;28;20053;-81
2022/06/16 07:29:49;;;;;;;4.13;2.85;;;;;;;19.65;46.88;100752.19;5065811;28;20056;-81
2022/06/16 07:32:18;;;;;;;4.97;3.13;;;;;;;19.65;46.70;100757.00;5073147;28;20052;-82
2022/06/16 07:34:47;;;;;;;4.88;3.00;;;;;;;19.81;46.82;100757.81;5075473;28;20075;-82
2022/06/16 07:37:15;;;;;;;3.38;2.42;;;;;;;19.95;46.94;100753.66;5075808;28;20049;-82
2022/06/16 07:39:42;;;;;;;6.25;2.90;;;;;;;20.04;46.51;100759.91;5068097;28;20436;-82
2022/06/16 07:42:10;;;;;;;3.78;2.53;;;;;;;20.00;45.44;100768.31;5069467;28;20057;-83
2022/06/16 07:44:38;;;;;;;6.50;2.92;;;;;;;20.16;44.84;100764.59;5073024;28;20044;-81
2022/06/16 07:47:06;;;;;;;3.63;2.63;;;;;;;20.25;44.58;100770.84;5074622;28;20080;-82
2022/06/16 07:49:33;;;;;;;4.47;2.63;;;;;;;20.33;43.91;100774.66;5068972;28;20045;-80
2022/06/16 07:52:02;;;;;;;4.68;2.45;;;;;;;20.39;44.15;100781.63;5072492;28;20055;-81
2022/06/16 07:54:30;;;;;;;3.97;2.45;;;;;;;20.46;44.51;100785.41;5071037;28;20528;-81
2022/06/16 07:56:58;;;;;;;6.80;2.95;;;;;;;20.94;44.58;100787.13;5067589;28;20067;-82
2022/06/16 07:59:26;;;;;;;5.07;2.53;;;;;;;21.82;42.18;100786.94;5091708;28;20059;-81
2022/06/16 08:01:56;;;;;;;4.53;2.58;;;;;;;23.01;40.15;100777.78;5090297;28;20060;-81
2022/06/16 08:04:23;;;;;;;4.35;2.67;;;;;;;23.96;37.24;100783.75;5075547;28;20048;-82
2022/06/16 08:06:51;;;;;;;2.97;1.90;;;;;;;24.96;36.01;100782.44;5071655;28;20071;-81
2022/06/16 08:09:22;;;;;;;5.22;2.60;;;;;;;25.77;33.53;100797.09;5074317;28;20515;-81
2022/06/16 08:12:04;;;;;;;3.95;2.10;;;;;;;26.63;33.12;100771.88;5072675;28;20053;-81
2022/06/16 08:14:32;;;;;;;3.63;1.90;;;;;;;27.51;31.43;100783.06;5071305;28;20041;-82
2022/06/16 08:17:00;;;;;;;3.75;2.00;;;;;;;28.34;29.43;100779.25;5070045;28;20492;-82
2022/06/16 08:19:27;;;;;;;4.25;1.83;;;;;;;29.05;28.79;100782.34;5071852;28;20055;-82
2022/06/16 08:21:54;;;;;;;4.20;1.75;;;;;;;30.10;28.09;100784.97;5069840;28;20052;-82
2022/06/16 08:24:23;;;;;;;3.33;1.90;;;;;;;31.17;27.30;100775.19;5073069;28;20056;-81
2022/06/16 08:26:52;;;;;;;4.90;2.20;;;;;;;32.21;23.64;100781.81;5069493;28;20056;-84
2022/06/16 08:29:19;;;;;;;3.85;2.35;;;;;;;33.04;22.84;100785.81;5087656;28;20404;-83
2022/06/16 08:31:47;;;;;;;2.92;1.85;;;;;;;33.86;22.51;100787.19;5083400;28;20060;-80
2022/06/16 08:34:14;;;;;;;6.07;2.10;;;;;;;34.44;22.04;100798.22;5073037;28;20052;-82
2022/06/16 08:36:42;;;;;;;4.63;2.17;;;;;;;35.33;21.32;100795.88;5069984;28;20377;-81
2022/06/16 08:39:12;;;;;;;4.20;2.05;;;;;;;36.55;18.95;100788.28;5070633;28;20060;-80
2022/06/16 08:41:48;;;;;;;3.10;1.83;;;;;;;36.62;18.70;100795.88;5064453;28;20059;-82
2022/06/16 08:44:25;;;;;;;4.88;1.90;;;;;;;36.93;18.41;100792.69;5066962;28;20067;-81
2022/06/16 08:47:03;;;;;;;3.95;2.00;;;;;;;37.73;17.86;100798.19;5069174;28;20056;-81
2022/06/16 08:49:39;;;;;;;3.33;1.80;;;;;;;38.40;17.02;100797.94;5075491;28;20044;-88
2022/06/16 08:52:23;;;;;;;3.15;2.05;;;;;;;39.18;15.76;100796.31;5074372;28;20048;-89
2022/06/16 08:55:01;;;;;;;3.58;1.83;;;;;;;39.96;15.37;100792.06;5063912;28;20056;-83
2022/06/16 08:57:42;;;;;;;3.17;1.88;;;;;;;40.23;14.71;100805.38;5072300;28;20048;-82
2022/06/16 09:00:14;;;;;;;2.95;1.70;;;;;;;40.54;15.22;100801.72;5074115;28;20404;-83
2022/06/16 09:02:47;;;;;;;2.65;1.63;;;;;;;40.83;14.50;100793.22;5073081;28;20052;-83
2022/06/16 09:05:26;;;;;;;2.38;1.77;;;;;;;40.94;14.46;100804.97;5066440;28;20052;-79
2022/06/16 09:08:03;;;;;;;2.70;1.52;;;;;;;41.53;13.18;100795.50;5065497;28;20076;-80
2022/06/16 09:10:38;;;;;;;2.80;1.63;;;;;;;41.90;13.48;100806.31;5072496;28;20059;-83
2022/06/16 09:13:20;;;;;;;3.22;1.80;;;;;;;41.71;13.07;100797.22;5070662;28;20414;-82
2022/06/16 09:16:06;;;;;;;2.63;1.65;;;;;;;41.92;13.00;100797.81;5065726;28;20059;-81
2022/06/16 09:19:09;;;;;;;3.85;1.50;;;;;;;42.22;12.56;100803.22;5067994;28;20056;-82
2022/06/16 09:21:47;;;;;;;2.53;1.42;;;;;;;42.63;12.51;100801.94;5065622;28;20099;-79
2022/06/16 09:24:31;;;;;;;3.60;1.55;;;;;;;42.85;11.84;100804.09;5073173;28;20064;-80
2022/06/16 09:27:02;;;;;;;2.38;1.33;;;;;;;43.29;12.21;100805.38;5069863;28;20408;-80
2022/06/16 09:29:36;;;;;;;3.75;1.48;;;;;;;43.40;12.01;100805.34;5072522;28;20052;-84
2022/06/16 09:32:17;;;;;;;1.90;1.48;;;;;;;44.01;11.41;100802.69;5054487;28;20389;-81
2022/06/16 09:34:59;;;;;;;2.28;1.38;;;;;;;43.80;11.47;100808.94;5068317;28;20064;-81
2022/06/16 09:37:32;;;;;;;3.05;1.60;;;;;;;44.05;11.13;100812.81;5071357;28;20052;-85
2022/06/16 09:40:07;;;;;;;2.53;1.55;;;;;;;43.48;11.13;100814.38;5069806;28;20048;-85
2022/06/16 09:42:41;;;;;;;2.40;1.20;;;;;;;43.25;11.29;100819.53;5069733;28;20064;-85
2022/06/16 09:45:17;;;;;;;2.55;1.40;;;;;;;43.32;11.19;100825.59;5063257;28;20056;-85
2022/06/16 09:47:53;;;;;;;2.63;1.60;;;;;;;43.74;10.87;100828.69;5072862;28;20063;-85
2022/06/16 09:50:30;;;;;;;3.72;1.73;;;;;;;43.97;11.00;100829.38;5071107;28;20040;-84
2022/06/16 09:53:05;;;;;;;2.17;1.30;;;;;;;44.11;10.43;100824.53;5068337;28;20048;-85
2022/06/16 09:55:39;;;;;;;2.28;1.55;;;;;;;44.36;10.46;100829.16;5071412;28;20071;-84
2022/06/16 09:58:14;;;;;;;2.85;1.20;;;;;;;43.99;10.64;100832.56;5065195;28;20386;-85
2022/06/16 10:00:46;;;;;;;2.28;1.10;;;;;;;44.30;10.22;100831.34;5048054;28;20405;-85
2022/06/16 10:03:24;;;;;;;5.05;1.10;;;;;;;43.92;10.66;100841.97;5072490;28;20436;-84
2022/06/16 10:06:06;;;;;;;3.17;1.20;;;;;;;44.92;9.91;100844.78;5083211;28;20048;-84
2022/06/16 10:08:41;;;;;;;2.55;1.30;;;;;;;45.42;10.03;100846.44;5071344;28;20056;-88
2022/06/16 10:11:16;;;;;;;2.58;1.38;;;;;;;46.16;9.02;100840.44;5063222;28;20080;-89
2022/06/16 10:13:52;;;;;;;2.38;1.50;;;;;;;46.56;9.44;100844.41;5068873;28;20045;-87
2022/06/16 10:16:28;;;;;;;2.13;1.30;;;;;;;46.28;9.07;100856.59;5072182;28;20044;-89
2022/06/16 10:18:55;;;;;;;5.45;1.73;;;;;;;46.01;9.04;100858.59;5073679;28;20060;-89
2022/06/16 10:21:22;;;;;;;;;;;;;;;45.51;9.50;100857.84;5069703;28;20060;-88
2022/06/16 10:23:56;;;;;;;1.70;1.10;;;;;;;46.23;9.64;100862.59;5071704;28;19920;-88
2022/06/16 10:26:23;;;;;;;2.65;1.40;;;;;;;46.25;9.32;100869.50;5072886;28;20053;-88
2022/06/16 10:29:01;;;;;;;;;;;;;;;46.12;9.38;100881.22;5075161;28;20059;-93
2022/06/16 10:31:40;;;;;;;1.70;1.00;;;;;;;47.07;8.61;100878.94;5070396;28;19924;-92
2022/06/16 10:34:18;;;;;;;2.03;1.10;;;;;;;47.64;8.52;100883.81;5059502;28;20048;-84
2022/06/16 10:36:54;;;;;;;2.28;1.23;;;;;;;47.53;8.13;100884.84;5068959;28;20064;-91
2022/06/16 10:39:28;;;;;;;1.85;1.00;;;;;;;47.85;8.02;100887.66;5069636;28;20056;-86
2022/06/16 10:42:01;;;;;;;2.53;1.30;;;;;;;48.06;7.61;100886.97;5071312;28;20059;-84
2022/06/16 10:44:30;;;;;;;2.38;0.95;;;;;;;48.08;7.88;100887.97;5070459;28;20048;-85
2022/06/16 10:47:02;;;;;;;2.92;1.20;;;;;;;48.46;7.97;100886.88;5069933;28;20052;-85
2022/06/16 10:49:34;;;;;;;1.83;1.25;;;;;;;48.71;7.27;100885.19;5072455;28;20052;-85
2022/06/16 10:52:11;;;;;;;2.25;1.08;;;;;;;49.30;7.13;100875.06;5068230;28;20063;-86
2022/06/16 10:54:45;;;;;;;1.60;1.10;;;;;;;49.15;7.42;100879.50;5067959;28;20127;-86
2022/06/16 10:57:19;;;;;;;1.73;1.00;;;;;;;49.30;7.17;100881.78;5072179;28;20056;-87
2022/06/16 10:59:49;;;;;;;1.52;1.00;;;;;;;48.64;7.70;100888.88;5067036;28;20045;-83
2022/06/16 11:02:26;;;;;;;2.22;1.17;;;;;;;48.93;6.94;100894.84;5062285;28;20485;-90
2022/06/16 11:05:01;;;;;;;1.48;0.85;;;;;;;48.84;7.26;100886.50;5072326;28;20049;-89
2022/06/16 11:07:34;;;;;;;1.70;1.00;;;;;;;48.89;7.20;100888.50;5073229;28;20044;-89
2022/06/16 11:10:07;;;;;;;1.60;1.00;;;;;;;48.48;7.04;100893.00;5077249;28;20048;-91
2022/06/16 11:12:37;;;;;;;1.85;1.25;;;;;;;48.20;7.53;100891.47;5061738;28;20053;-90
2022/06/16 11:15:15;;;;;;;1.65;1.20;;;;;;;48.46;7.25;100904.59;5059452;28;20476;-90
2022/06/16 11:17:53;;;;;;;1.95;1.30;;;;;;;48.11;7.58;100900.81;5068066;28;20048;-88
2022/06/16 11:20:43;;;;;;;1.33;0.98;;;;;;;48.32;7.97;100906.81;5066512;28;20067;-89
2022/06/16 11:23:26;;;;;;;1.90;1.00;;;;;;;48.03;7.89;100897.78;5065773;28;20068;-87
2022/06/16 11:26:02;;;;;;;2.58;1.33;;;;;;;48.40;7.52;100898.03;5063953;28;20424;-88
2022/06/16 11:28:32;;;;;;;2.50;1.20;;;;;;;48.34;7.54;100893.06;5066333;28;20048;-88
2022/06/16 11:31:04;;;;;;;2.15;1.27;;;;;;;47.72;8.20;100902.44;5058215;28;20052;-88
2022/06/16 11:36:37;;;;;;;1.50;0.95;;;;;;;46.96;8.57;100891.72;5072759;28;20064;-87
2022/06/16 11:39:12;;;;;;;1.95;1.00;;;;;;;46.73;8.75;100884.59;5067744;28;20163;-88
2022/06/16 11:41:42;;;;;;;1.85;1.08;;;;;;;46.83;8.53;100876.94;5063149;28;20076;-88
2022/06/16 11:44:26;;;;;;;1.60;1.02;;;;;;;46.74;8.95;100875.19;5072639;28;20044;-88
2022/06/16 11:47:05;;;;;;;2.00;1.05;;;;;;;47.02;8.33;100876.06;5067467;28;20048;-87
2022/06/16 11:49:41;;;;;;;1.95;1.08;;;;;;;46.78;8.81;100872.72;5075171;28;20047;-89
2022/06/16 11:52:21;;;;;;;1.77;1.00;;;;;;;46.71;8.91;100876.31;5075132;28;20059;-88
2022/06/16 11:54:59;;;;;;;1.90;1.10;;;;;;;46.66;8.86;100877.19;5059374;28;20048;-86
2022/06/16 11:57:34;;;;;;;2.67;1.17;;;;;;;46.19;8.98;100874.69;5064703;28;20056;-88
2022/06/16 12:00:13;;;;;;;1.33;1.00;;;;;;;45.98;9.03;100875.19;5066536;28;20057;-87
2022/06/16 12:03:02;;;;;;;1.75;0.95;;;;;;;45.08;9.60;100875.38;5062720;28;20504;-87
2022/06/16 12:05:38;;;;;;;1.70;1.10;;;;;;;44.80;10.26;100866.81;5065141;28;20049;-87
2022/06/16 12:08:15;;;;;;;2.88;1.60;;;;;;;44.68;10.27;100869.81;5071869;28;20504;-87